Time;durP1;ratioP1;P1;durP2;ratioP2;P2;SDS_P1;SDS_P2;PMS_P1;PMS_P2;Temp;Humidity;BMP_temperature;BMP_pressure;BME280_temperature;BME280_humidity;BME280_pressure;Samples;Min_cycle;Max_cycle;Signal;HPM_P1;HPM_P2
2022/01/23 00:01:43;;;;;;;4.93;3.35;;;5.50;99.90;;;;;;5019120;28;19913;-75
2022/01/23 00:04:08;;;;;;;4.68;3.33;;;5.50;99.90;;;;;;5026260;28;20044;-76
2022/01/23 00:06:34;;;;;;;;;;;5.50;99.90;;;;;;5028875;28;20022;-75
2022/01/23 00:08:59;;;;;;;4.85;3.08;;;5.50;99.90;;;;;;5028280;28;19917;-76
2022/01/23 00:11:27;;;;;;;4.10;3.08;;;5.50;99.90;;;;;;5028317;28;20545;-76
2022/01/23 00:19:07;;;;;;;6.32;4.00;;;5.50;99.90;;;;;;5027704;28;20036;-76
2022/01/23 00:21:34;;;;;;;;;;;5.40;99.90;;;;;;5028220;28;20163;-75
2022/01/23 00:31:54;;;;;;;8.00;4.15;;;5.30;99.90;;;;;;5025870;28;20095;-76
2022/01/23 00:34:20;;;;;;;4.68;3.83;;;5.30;99.90;;;;;;5026682;28;20037;-76
2022/01/23 00:36:46;;;;;;;6.03;3.97;;;5.40;99.90;;;;;;5027052;28;20541;-76
2022/01/23 00:39:11;;;;;;;5.38;4.03;;;5.40;99.90;;;;;;5026126;28;20516;-76
2022/01/23 00:41:37;;;;;;;7.35;5.07;;;5.30;99.90;;;;;;5028083;28;20072;-76
2022/01/23 00:44:03;;;;;;;10.23;4.55;;;5.30;99.90;;;;;;5026218;28;20033;-75
2022/01/23 00:46:33;;;;;;;;;;;5.30;99.90;;;;;;5026406;28;20030;-76
2022/01/23 00:51:26;;;;;;;;;;;5.30;99.90;;;;;;5027114;28;20034;-75
2022/01/23 00:53:52;;;;;;;5.90;3.78;;;5.30;99.90;;;;;;5026984;28;19955;-76
2022/01/23 00:56:18;;;;;;;9.55;4.75;;;5.30;99.90;;;;;;5028769;28;20033;-76
2022/01/23 00:58:44;;;;;;;7.35;4.72;;;5.30;99.90;;;;;;5027264;28;20212;-76
2022/01/23 01:01:10;;;;;;;12.35;5.07;;;5.30;99.90;;;;;;5027729;28;20144;-76
2022/01/23 01:03:36;;;;;;;;;;;5.30;99.90;;;;;;5028885;28;20071;-75
2022/01/23 01:06:01;;;;;;;6.50;4.25;;;5.30;99.90;;;;;;5029417;28;19972;-76
2022/01/23 01:08:27;;;;;;;;;;;5.30;99.90;;;;;;5028058;28;20026;-75
2022/01/23 01:11:12;;;;;;;7.07;3.50;;;5.30;99.90;;;;;;5026750;28;19916;-76
2022/01/23 01:14:30;;;;;;;9.23;5.47;;;5.30;99.90;;;;;;5026908;28;20060;-75
2022/01/23 01:35:18;;;;;;;10.13;5.88;;;5.30;99.90;;;;;;5027859;28;20021;-75
2022/01/23 01:37:43;;;;;;;13.82;5.85;;;5.20;99.90;;;;;;5024479;28;20041;-75
2022/01/23 01:40:09;;;;;;;12.88;6.43;;;5.20;99.90;;;;;;5025081;28;20098;-75
2022/01/23 01:42:35;;;;;;;7.85;5.82;;;5.10;99.90;;;;;;5022920;28;20037;-75
2022/01/23 01:45:00;;;;;;;15.55;7.55;;;5.10;99.90;;;;;;5026401;28;20021;-75
2022/01/23 01:47:26;;;;;;;11.10;6.00;;;5.10;99.90;;;;;;5026319;28;20033;-75
2022/01/23 01:49:51;;;;;;;13.55;6.25;;;5.00;99.90;;;;;;5024575;28;20053;-75
2022/01/23 01:52:17;;;;;;;8.80;6.30;;;5.00;99.90;;;;;;5025479;28;20029;-75
2022/01/23 01:54:43;;;;;;;8.82;5.90;;;5.00;99.90;;;;;;5026079;28;20018;-75
2022/01/23 01:57:10;;;;;;;10.75;5.82;;;5.00;99.90;;;;;;5025090;28;20467;-75
2022/01/23 02:10:24;;;;;;;8.82;5.88;;;5.00;99.90;;;;;;5026090;28;20041;-75
2022/01/23 02:13:04;;;;;;;9.35;6.68;;;5.10;99.90;;;;;;5025996;28;20029;-75
2022/01/23 02:15:58;;;;;;;8.75;6.32;;;5.10;99.90;;;;;;5025985;28;20041;-74
2022/01/23 02:24:11;;;;;;;7.45;4.97;;;5.10;99.90;;;;;;5025248;28;20064;-75
2022/01/23 02:54:30;;;;;;;10.40;6.45;;;5.10;99.90;;;;;;5024409;28;20032;-75
2022/01/23 02:56:59;;;;;;;9.45;6.90;;;5.10;99.90;;;;;;5024538;28;20092;-75
2022/01/23 02:59:30;;;;;;;11.57;8.60;;;5.10;99.90;;;;;;5025497;28;20099;-75
2022/01/23 03:02:25;;;;;;;10.13;7.50;;;5.10;99.90;;;;;;5027003;28;20418;-75
2022/01/23 03:04:53;;;;;;;10.63;6.88;;;5.20;99.90;;;;;;5030039;28;20038;-75
2022/01/23 03:15:18;;;;;;;10.93;6.25;;;5.10;99.90;;;;;;5030358;28;20047;-75
2022/01/23 03:31:26;;;;;;;8.20;5.40;;;5.10;99.90;;;;;;5009266;28;20498;-75
2022/01/23 03:33:53;;;;;;;6.50;5.22;;;5.10;99.90;;;;;;5029140;28;20032;-75
2022/01/23 03:36:19;;;;;;;14.38;6.38;;;5.00;99.90;;;;;;5029252;28;20029;-75
2022/01/23 03:38:45;;;;;;;10.85;5.70;;;5.00;99.90;;;;;;5026428;28;20029;-75
2022/01/23 03:41:11;;;;;;;;;;;5.10;99.90;;;;;;5027241;28;20090;-74
2022/01/23 03:43:38;;;;;;;7.57;5.13;;;5.10;99.90;;;;;;5028082;28;20448;-75
2022/01/23 03:51:13;;;;;;;16.90;6.78;;;5.10;99.90;;;;;;5027364;28;20087;-75
2022/01/23 03:53:40;;;;;;;11.23;7.63;;;5.10;99.90;;;;;;5028068;28;20359;-75
2022/01/23 03:56:06;;;;;;;10.05;6.72;;;5.10;99.90;;;;;;5028001;28;20116;-76
2022/01/23 03:58:32;;;;;;;;;;;5.10;99.90;;;;;;5028235;28;20498;-76
2022/01/23 04:00:58;;;;;;;9.50;5.65;;;5.10;99.90;;;;;;5024089;28;19909;-76
2022/01/23 04:03:23;;;;;;;10.82;5.88;;;5.10;99.90;;;;;;5028936;28;20025;-76
2022/01/23 04:05:50;;;;;;;10.60;5.25;;;5.10;99.90;;;;;;5027371;28;20041;-76
2022/01/23 04:08:17;;;;;;;10.32;5.97;;;5.10;99.90;;;;;;5026553;28;20109;-75
2022/01/23 04:10:43;;;;;;;11.00;6.35;;;5.10;99.90;;;;;;5028801;28;20061;-75
2022/01/23 04:13:21;;;;;;;13.70;7.38;;;5.10;99.90;;;;;;5028363;28;20025;-76
2022/01/23 04:15:53;;;;;;;9.60;7.15;;;5.10;99.90;;;;;;5028292;28;20036;-75
2022/01/23 04:19:06;;;;;;;11.52;8.13;;;5.20;99.90;;;;;;5028196;28;20494;-75
2022/01/23 04:31:42;;;;;;;8.93;6.18;;;5.20;99.90;;;;;;5028234;28;20017;-75
2022/01/23 04:32:48;;;;;;;10.15;6.78;;;5.30;99.90;;;;;;5026592;28;20496;-75
2022/01/23 04:35:44;;;;;;;11.88;7.05;;;5.30;99.90;;;;;;5027096;28;20029;-75
2022/01/23 04:47:03;;;;;;;16.17;9.48;;;5.30;99.90;;;;;;4982696;28;20030;-77
2022/01/23 05:00:10;;;;;;;14.00;9.63;;;5.30;99.90;;;;;;5005194;28;20060;-77
2022/01/23 05:03:32;;;;;;;15.93;9.15;;;5.30;99.90;;;;;;5003144;28;20549;-77
2022/01/23 05:05:37;;;;;;;15.20;9.65;;;5.30;99.90;;;;;;5006974;28;20034;-77
2022/01/23 05:08:06;;;;;;;16.17;10.27;;;5.30;99.90;;;;;;5005080;28;20117;-77
2022/01/23 05:10:32;;;;;;;14.10;10.18;;;5.40;99.90;;;;;;5004767;28;20372;-77
2022/01/23 05:12:58;;;;;;;14.43;9.65;;;5.30;99.90;;;;;;4999960;28;20030;-77
2022/01/23 05:15:23;;;;;;;15.52;10.45;;;5.40;99.90;;;;;;5007285;28;20030;-77
2022/01/23 05:17:49;;;;;;;16.10;9.40;;;5.40;99.90;;;;;;5005095;28;20034;-77
2022/01/23 05:20:17;;;;;;;14.45;9.13;;;5.40;99.90;;;;;;5006336;28;20036;-77
2022/01/23 05:22:47;;;;;;;15.93;8.98;;;5.40;99.90;;;;;;4999394;28;20038;-77
2022/01/23 05:25:19;;;;;;;14.43;9.80;;;5.40;99.90;;;;;;5008135;28;20026;-78
2022/01/23 05:27:46;;;;;;;15.00;9.45;;;5.40;99.90;;;;;;5005627;28;20479;-77
2022/01/23 05:30:12;;;;;;;15.82;10.48;;;5.40;99.90;;;;;;5005237;28;20040;-76
2022/01/23 05:32:41;;;;;;;17.95;11.45;;;5.40;99.90;;;;;;5003892;28;20038;-77
2022/01/23 05:35:08;;;;;;;17.48;10.10;;;5.40;99.90;;;;;;5007576;28;20530;-77
2022/01/23 05:37:36;;;;;;;21.52;11.30;;;5.40;99.90;;;;;;5004700;28;20042;-76
2022/01/23 05:40:04;;;;;;;18.38;11.13;;;5.40;99.90;;;;;;5004639;28;20038;-76
2022/01/23 05:42:30;;;;;;;20.50;11.30;;;5.40;99.90;;;;;;5002334;28;20037;-76
2022/01/23 05:44:55;;;;;;;15.70;10.32;;;5.40;99.90;;;;;;5007696;28;20371;-77
2022/01/23 05:47:21;;;;;;;21.92;11.07;;;5.40;99.90;;;;;;5004520;28;20479;-77
2022/01/23 05:49:47;;;;;;;15.43;11.23;;;5.40;99.90;;;;;;5003047;28;20041;-77
2022/01/23 05:52:12;;;;;;;15.85;10.98;;;5.40;99.90;;;;;;5004981;28;20021;-77
2022/01/23 05:54:38;;;;;;;16.23;10.93;;;5.40;99.90;;;;;;5005431;28;20145;-77
2022/01/23 05:57:03;;;;;;;19.80;10.32;;;5.50;99.90;;;;;;5003106;28;20038;-77
2022/01/23 05:59:29;;;;;;;14.93;10.77;;;5.40;99.90;;;;;;5004714;28;20478;-76
2022/01/23 06:01:55;;;;;;;17.27;11.38;;;5.40;99.90;;;;;;5002850;28;20084;-77
2022/01/23 06:04:22;;;;;;;15.70;10.20;;;5.40;99.90;;;;;;5007835;28;20025;-77
2022/01/23 06:06:48;;;;;;;18.20;11.77;;;5.40;99.90;;;;;;5004345;28;20487;-76
2022/01/23 06:09:15;;;;;;;16.08;10.95;;;5.40;99.90;;;;;;5006164;28;20479;-77
2022/01/23 06:11:40;;;;;;;24.17;12.32;;;5.40;99.90;;;;;;5004620;28;20042;-77
2022/01/23 06:14:08;;;;;;;15.85;10.55;;;5.40;99.90;;;;;;5003549;28;20459;-77
2022/01/23 06:16:34;;;;;;;15.40;10.00;;;5.40;99.90;;;;;;5003877;28;20045;-77
2022/01/23 06:19:00;;;;;;;16.63;10.35;;;5.40;99.90;;;;;;5006844;28;20034;-78
2022/01/23 06:21:26;;;;;;;20.92;11.10;;;5.40;99.90;;;;;;5004255;28;20498;-78
2022/01/23 06:24:02;;;;;;;18.90;11.00;;;5.40;99.90;;;;;;5006008;28;20030;-78
2022/01/23 06:26:40;;;;;;;14.90;9.65;;;5.40;99.90;;;;;;5005196;28;20041;-76
2022/01/23 06:29:06;;;;;;;16.30;9.70;;;5.40;99.90;;;;;;5004177;28;20125;-75
2022/01/23 06:31:32;;;;;;;19.98;11.35;;;5.40;99.90;;;;;;5004398;28;20082;-75
2022/01/23 06:33:59;;;;;;;18.60;12.15;;;5.40;99.90;;;;;;5005326;28;20030;-78
2022/01/23 06:36:24;;;;;;;17.88;11.00;;;5.40;99.90;;;;;;5008573;28;20034;-78
2022/01/23 06:38:50;;;;;;;16.23;9.27;;;5.40;99.90;;;;;;5000877;28;20474;-75
2022/01/23 06:41:15;;;;;;;;;;;5.40;99.90;;;;;;5011295;28;20034;-75
2022/01/23 06:43:41;;;;;;;16.65;9.93;;;5.40;99.90;;;;;;5010707;28;19950;-73
2022/01/23 06:46:06;;;;;;;13.82;9.70;;;5.40;99.90;;;;;;5009760;28;20038;-72
2022/01/23 06:48:32;;;;;;;14.60;9.73;;;5.40;99.90;;;;;;5011137;28;20021;-73
2022/01/23 06:50:57;;;;;;;17.67;10.63;;;5.40;99.90;;;;;;5010489;28;20022;-73
2022/01/23 06:53:23;;;;;;;;;;;5.40;99.90;;;;;;5010804;28;20025;-75
2022/01/23 06:55:48;;;;;;;17.70;11.45;;;5.40;99.90;;;;;;5007552;28;20054;-76
2022/01/23 06:58:14;;;;;;;14.60;9.80;;;5.40;99.90;;;;;;5007557;28;20564;-75
2022/01/23 07:00:39;;;;;;;;;;;5.40;99.90;;;;;;5005262;28;20184;-75
2022/01/23 07:03:05;;;;;;;15.80;9.98;;;5.40;99.90;;;;;;5006028;28;19909;-76
2022/01/23 07:05:30;;;;;;;12.50;8.90;;;5.40;99.90;;;;;;5004788;28;20056;-75
2022/01/23 07:07:56;;;;;;;15.73;9.90;;;5.40;99.90;;;;;;5004557;28;20297;-75
2022/01/23 07:10:21;;;;;;;13.10;9.80;;;5.40;99.90;;;;;;5008882;28;20185;-75
2022/01/23 07:12:47;;;;;;;14.25;10.10;;;5.50;99.90;;;;;;5010655;28;20502;-75
2022/01/23 07:15:13;;;;;;;;;;;5.50;99.90;;;;;;5007659;28;20028;-75
2022/01/23 07:17:42;;;;;;;12.45;7.95;;;5.50;99.90;;;;;;5009342;28;19974;-75
2022/01/23 07:20:09;;;;;;;15.50;9.80;;;5.50;99.90;;;;;;5003964;28;20029;-75
2022/01/23 07:22:34;;;;;;;15.27;8.68;;;5.40;99.90;;;;;;5008099;28;20610;-75
2022/01/23 07:25:02;;;;;;;12.35;7.90;;;5.40;99.90;;;;;;5009190;28;20125;-76
2022/01/23 07:27:32;;;;;;;13.00;8.85;;;5.40;99.90;;;;;;5011726;28;20034;-76
2022/01/23 07:29:57;;;;;;;9.90;7.38;;;5.40;99.90;;;;;;5007058;28;20045;-76
2022/01/23 07:32:23;;;;;;;13.77;6.80;;;5.40;99.90;;;;;;5009033;28;20026;-75
2022/01/23 07:34:48;;;;;;;19.67;9.15;;;5.40;99.90;;;;;;5010381;28;20067;-75
2022/01/23 07:37:15;;;;;;;;;;;5.40;99.90;;;;;;5007599;28;20117;-76
2022/01/23 07:39:41;;;;;;;14.88;8.45;;;5.40;99.90;;;;;;5010168;28;20240;-76
2022/01/23 07:42:07;;;;;;;14.25;9.13;;;5.40;99.90;;;;;;5009608;28;20052;-76
2022/01/23 07:44:32;;;;;;;12.45;8.05;;;5.50;99.90;;;;;;5005716;28;20034;-76
2022/01/23 07:46:58;;;;;;;12.88;7.53;;;5.50;99.90;;;;;;5009198;28;20445;-76
2022/01/23 07:49:23;;;;;;;26.90;16.85;;;5.50;99.90;;;;;;5009647;28;20037;-74
2022/01/23 07:51:49;;;;;;;13.13;9.40;;;5.60;99.90;;;;;;5009678;28;20026;-76
2022/01/23 07:54:15;;;;;;;;;;;6.20;99.90;;;;;;5008180;28;20375;-76
2022/01/23 07:56:42;;;;;;;12.32;6.63;;;6.20;99.90;;;;;;5006304;28;19945;-76
2022/01/23 07:59:09;;;;;;;15.10;9.43;;;6.10;99.90;;;;;;5006554;28;20707;-75
2022/01/23 08:01:38;;;;;;;12.32;7.70;;;6.00;99.90;;;;;;5006785;28;20129;-76
2022/01/23 08:04:07;;;;;;;15.52;9.18;;;6.00;99.90;;;;;;5008405;28;20108;-76
2022/01/23 08:06:40;;;;;;;13.88;9.43;;;5.90;99.90;;;;;;5007355;28;20120;-76
2022/01/23 08:09:05;;;;;;;12.48;8.07;;;5.80;99.90;;;;;;5004921;28;20058;-76
2022/01/23 08:11:31;;;;;;;;;;;5.80;99.90;;;;;;5008425;28;20060;-76
2022/01/23 08:13:56;;;;;;;8.07;6.10;;;5.80;99.90;;;;;;5004569;28;19917;-75
2022/01/23 08:16:22;;;;;;;11.18;8.23;;;5.80;99.90;;;;;;5007870;28;20041;-76
2022/01/23 08:18:47;;;;;;;11.93;8.38;;;5.70;99.90;;;;;;5005648;28;20038;-76
2022/01/23 08:21:13;;;;;;;10.50;6.57;;;5.80;99.90;;;;;;5005734;28;20036;-75
2022/01/23 08:23:38;;;;;;;12.55;8.35;;;5.70;99.90;;;;;;5006157;28;20038;-75
2022/01/23 08:26:05;;;;;;;;;;;5.80;99.90;;;;;;5005762;28;20096;-74
2022/01/23 08:28:30;;;;;;;9.38;6.18;;;5.80;99.90;;;;;;5007707;28;19909;-74
2022/01/23 08:30:56;;;;;;;;;;;5.80;99.90;;;;;;5002453;28;20049;-75
2022/01/23 08:33:21;;;;;;;10.20;7.35;;;5.80;99.90;;;;;;4999257;28;20298;-75
2022/01/23 08:35:47;;;;;;;;;;;5.80;99.90;;;;;;5003896;28;20056;-75
2022/01/23 08:38:16;;;;;;;12.50;7.13;;;5.90;99.90;;;;;;4999966;28;20203;-75
2022/01/23 08:43:07;;;;;;;;;;;5.90;99.90;;;;;;5005076;28;20033;-77
2022/01/23 08:45:33;;;;;;;9.55;7.03;;;6.00;99.90;;;;;;5005871;28;19924;-78
2022/01/23 08:47:59;;;;;;;11.00;7.18;;;6.00;99.90;;;;;;5007052;28;20038;-79
2022/01/23 08:50:25;;;;;;;;;;;6.00;99.90;;;;;;5000285;28;20473;-80
2022/01/23 08:52:51;;;;;;;9.30;7.00;;;6.00;99.90;;;;;;5000302;28;20328;-79
2022/01/23 08:55:17;;;;;;;9.18;7.35;;;6.00;99.90;;;;;;4996281;28;20036;-79
2022/01/23 08:57:43;;;;;;;10.52;6.95;;;6.00;99.90;;;;;;4998709;28;20054;-78
2022/01/23 09:00:08;;;;;;;;;;;6.00;99.90;;;;;;4992250;28;20030;-82
2022/01/23 09:02:34;;;;;;;11.20;7.78;;;6.00;99.90;;;;;;5006275;28;20323;-81
2022/01/23 09:05:00;;;;;;;16.83;10.65;;;6.00;99.90;;;;;;5008698;28;20048;-78
2022/01/23 09:07:25;;;;;;;13.55;7.20;;;6.00;99.90;;;;;;5006712;28;20560;-79
2022/01/23 09:09:51;;;;;;;11.70;8.57;;;6.00;99.90;;;;;;5009396;28;20569;-86
2022/01/23 09:12:43;;;;;;;10.38;7.40;;;6.10;99.90;;;;;;5008987;28;20036;-81
2022/01/23 09:15:10;;;;;;;12.73;8.18;;;6.00;99.90;;;;;;5010712;28;20122;-80
2022/01/23 09:17:35;;;;;;;11.27;8.27;;;6.10;99.90;;;;;;5005842;28;20056;-80
2022/01/23 09:20:01;;;;;;;;;;;6.10;99.90;;;;;;5006436;28;20140;-79
2022/01/23 09:22:29;;;;;;;10.93;7.78;;;6.10;99.90;;;;;;5004162;28;19913;-79
2022/01/23 09:24:56;;;;;;;15.70;7.63;;;6.10;99.90;;;;;;5007352;28;20061;-78
2022/01/23 09:27:22;;;;;;;10.35;7.05;;;6.20;99.90;;;;;;5003082;28;20034;-77
2022/01/23 09:29:53;;;;;;;;;;;6.20;99.90;;;;;;5007115;28;20081;-79
2022/01/23 09:32:20;;;;;;;9.65;7.10;;;6.20;99.90;;;;;;5007622;28;19909;-78
2022/01/23 09:34:48;;;;;;;13.82;8.23;;;6.30;99.90;;;;;;5008148;28;20029;-78
2022/01/23 09:37:16;;;;;;;14.25;8.55;;;6.30;99.90;;;;;;5006999;28;20026;-78
2022/01/23 09:39:45;;;;;;;10.82;8.00;;;6.40;99.90;;;;;;5005228;28;20025;-78
2022/01/23 09:42:23;;;;;;;13.18;9.00;;;6.40;99.90;;;;;;5004746;28;20036;-78
2022/01/23 09:44:57;;;;;;;17.38;12.45;;;6.40;99.90;;;;;;5007467;28;20037;-78
2022/01/23 09:47:23;;;;;;;12.27;9.38;;;6.40;99.90;;;;;;5008887;28;20243;-79
2022/01/23 09:49:52;;;;;;;11.70;7.22;;;6.40;99.90;;;;;;5009245;28;20037;-79
2022/01/23 09:52:19;;;;;;;14.13;8.73;;;6.40;99.90;;;;;;5005159;28;20037;-82
2022/01/23 09:54:56;;;;;;;11.10;8.35;;;6.40;99.90;;;;;;5006032;28;20531;-83
2022/01/23 09:57:24;;;;;;;14.13;7.57;;;6.40;99.90;;;;;;5008793;28;20431;-84
2022/01/23 09:59:54;;;;;;;10.77;6.63;;;6.40;99.90;;;;;;5005120;28;20034;-82
2022/01/23 10:02:21;;;;;;;12.57;7.90;;;6.40;99.90;;;;;;5002742;28;20029;-77
2022/01/23 10:04:46;;;;;;;10.93;7.50;;;6.50;99.90;;;;;;5007501;28;20037;-78
2022/01/23 10:07:12;;;;;;;;;;;6.50;99.90;;;;;;5006306;28;21808;-78
2022/01/23 10:09:37;;;;;;;8.45;6.72;;;6.50;99.90;;;;;;5005650;28;19913;-79
2022/01/23 10:12:03;;;;;;;;;;;6.40;99.90;;;;;;5005888;28;20041;-81
2022/01/23 10:14:29;;;;;;;7.68;6.07;;;6.40;99.90;;;;;;5008498;28;19945;-78
2022/01/23 10:16:54;;;;;;;;;;;6.50;99.90;;;;;;5007347;28;20502;-87
2022/01/23 10:19:20;;;;;;;9.45;6.95;;;6.50;99.90;;;;;;5001135;28;19909;-77
2022/01/23 10:21:46;;;;;;;7.80;6.18;;;6.60;99.90;;;;;;5003073;28;20029;-83
2022/01/23 10:24:14;;;;;;;9.18;6.78;;;6.60;99.90;;;;;;5002605;28;20392;-80
2022/01/23 10:26:46;;;;;;;9.60;6.68;;;6.70;99.90;;;;;;5005487;28;20040;-80
2022/01/23 10:29:14;;;;;;;9.32;5.82;;;6.70;99.90;;;;;;5002908;28;20482;-80
2022/01/23 10:32:02;;;;;;;10.40;7.57;;;6.70;99.90;;;;;;5001396;28;20041;-80
2022/01/23 10:34:45;;;;;;;8.18;5.47;;;6.80;99.90;;;;;;5001485;28;20026;-81
2022/01/23 10:37:22;;;;;;;7.03;5.15;;;6.80;99.90;;;;;;5002572;28;20030;-80
2022/01/23 10:39:47;;;;;;;7.55;6.13;;;6.70;99.90;;;;;;5004074;28;20517;-80
2022/01/23 10:42:27;;;;;;;;;;;6.70;99.90;;;;;;5026742;22;20042;-81
2022/01/23 10:47:48;;;;;;;6.85;5.25;;;6.70;99.90;;;;;;5017343;28;20140;-81
2022/01/23 10:50:13;;;;;;;9.90;5.90;;;6.70;99.90;;;;;;5017038;28;20022;-81
2022/01/23 10:52:40;;;;;;;;;;;6.70;99.90;;;;;;5010883;28;20034;-79
2022/01/23 10:55:11;;;;;;;9.57;5.22;;;6.70;99.90;;;;;;5008229;28;19913;-80
2022/01/23 10:57:38;;;;;;;6.07;4.43;;;6.70;99.90;;;;;;5008133;28;20142;-81
2022/01/23 11:00:06;;;;;;;5.72;4.80;;;6.60;99.90;;;;;;5008362;28;20026;-80
2022/01/23 11:02:32;;;;;;;6.53;4.90;;;6.60;99.90;;;;;;5007100;28;20092;-81
2022/01/23 11:05:01;;;;;;;;;;;6.60;99.90;;;;;;5008473;28;20509;-81
2022/01/23 11:07:29;;;;;;;7.63;4.10;;;6.60;99.90;;;;;;5007639;28;20421;-81
2022/01/23 11:10:07;;;;;;;7.45;4.65;;;6.60;99.90;;;;;;5007736;28;20072;-80
2022/01/23 11:18:03;;;;;;;6.05;4.68;;;6.50;99.90;;;;;;5007293;28;20092;-76
2022/01/23 11:20:41;;;;;;;5.32;4.38;;;6.50;99.90;;;;;;5004822;28;20026;-79
2022/01/23 11:23:26;;;;;;;9.73;4.95;;;6.50;99.90;;;;;;5008813;28;20061;-78
2022/01/23 11:25:57;;;;;;;5.90;4.68;;;6.40;99.90;;;;;;5006147;28;20041;-78
2022/01/23 11:28:36;;;;;;;8.40;5.97;;;6.40;99.90;;;;;;5010874;28;20109;-79
2022/01/23 11:31:03;;;;;;;6.55;4.68;;;6.40;99.90;;;;;;5007895;28;20041;-84
2022/01/23 11:33:29;;;;;;;8.48;5.25;;;6.40;99.90;;;;;;5010230;28;20022;-84
2022/01/23 11:35:54;;;;;;;7.80;4.82;;;6.40;99.90;;;;;;5001261;28;20050;-83
2022/01/23 11:38:22;;;;;;;;;;;6.40;99.90;;;;;;5009444;28;20100;-81
2022/01/23 11:54:44;;;;;;;9.68;5.60;;;6.40;99.90;;;;;;5006577;28;20085;-81
2022/01/23 11:57:38;;;;;;;9.52;5.28;;;6.40;99.90;;;;;;5006960;28;20030;-87
2022/01/23 12:00:14;;;;;;;8.13;6.18;;;6.40;99.90;;;;;;5009055;28;20140;-86
2022/01/23 12:02:42;;;;;;;11.38;6.57;;;6.40;99.90;;;;;;5008762;28;20053;-82
2022/01/23 12:05:19;;;;;;;8.50;6.45;;;6.40;99.90;;;;;;5007781;28;20518;-83
2022/01/23 12:08:06;;;;;;;13.45;6.20;;;6.50;99.90;;;;;;5009986;28;20049;-80
2022/01/23 12:10:48;;;;;;;9.32;6.35;;;6.50;99.90;;;;;;5010154;28;20495;-85
2022/01/23 12:13:33;;;;;;;9.75;5.97;;;6.50;99.90;;;;;;5007875;28;20018;-82
2022/01/23 12:18:43;;;;;;;8.75;5.93;;;6.60;99.90;;;;;;5007270;28;20069;-83
2022/01/23 12:21:25;;;;;;;;;;;6.70;99.90;;;;;;5010183;28;20037;-85
2022/01/23 12:24:05;;;;;;;9.55;6.40;;;6.70;99.90;;;;;;5009460;28;19959;-86
2022/01/23 12:26:31;;;;;;;9.13;5.22;;;6.80;99.90;;;;;;5004734;28;20039;-80
2022/01/23 12:29:09;;;;;;;;;;;6.80;99.90;;;;;;5007567;28;20033;-78
2022/01/23 12:31:36;;;;;;;12.18;6.70;;;6.90;99.90;;;;;;5006688;28;19913;-84
2022/01/23 12:34:02;;;;;;;10.40;6.60;;;6.90;99.90;;;;;;5007700;28;20021;-83
2022/01/23 12:36:31;;;;;;;;;;;7.00;99.90;;;;;;5008058;28;20096;-83
2022/01/23 12:39:09;;;;;;;10.80;6.85;;;7.00;99.90;;;;;;5009821;28;19960;-83
2022/01/23 12:41:36;;;;;;;7.95;5.82;;;7.10;99.90;;;;;;5007790;28;20069;-81
2022/01/23 12:44:07;;;;;;;9.50;6.50;;;7.10;99.90;;;;;;5006291;28;20120;-80
2022/01/23 12:46:49;;;;;;;10.13;6.70;;;7.10;99.90;;;;;;5007708;28;20046;-82
2022/01/23 12:49:23;;;;;;;13.43;6.85;;;7.10;99.90;;;;;;5006117;28;20129;-83
2022/01/23 12:52:16;;;;;;;8.40;5.97;;;7.10;99.90;;;;;;5008410;28;20026;-81
2022/01/23 12:54:48;;;;;;;9.57;6.40;;;7.20;99.90;;;;;;5008719;28;20033;-81
2022/01/23 12:57:41;;;;;;;7.30;5.88;;;7.20;99.90;;;;;;5005621;28;20147;-82
2022/01/23 13:00:11;;;;;;;7.75;5.68;;;7.30;99.90;;;;;;5007866;28;20084;-83
2022/01/23 13:02:43;;;;;;;11.10;5.20;;;7.20;99.90;;;;;;5005449;28;20038;-82
2022/01/23 13:05:10;;;;;;;8.95;5.65;;;7.20;99.90;;;;;;5008921;28;20504;-80
2022/01/23 13:08:07;;;;;;;7.80;5.78;;;7.20;99.90;;;;;;5006583;28;20034;-79
2022/01/23 13:10:48;;;;;;;7.22;5.38;;;7.20;99.90;;;;;;5007103;28;20034;-79
2022/01/23 13:19:20;;;;;;;8.70;4.75;;;7.30;99.90;;;;;;5007345;28;20038;-79
2022/01/23 13:29:56;;;;;;;9.45;5.05;;;7.30;99.90;;;;;;5008695;28;20036;-79
2022/01/23 13:32:32;;;;;;;6.63;4.75;;;7.30;99.90;;;;;;5006918;28;20367;-79
2022/01/23 13:35:05;;;;;;;4.88;4.28;;;7.30;99.90;;;;;;5007623;28;20525;-78
2022/01/23 13:37:35;;;;;;;6.63;5.10;;;7.30;99.90;;;;;;5006457;28;20042;-78
2022/01/23 13:40:15;;;;;;;5.00;4.30;;;7.30;99.90;;;;;;5007763;28;20054;-78
2022/01/23 13:51:33;;;;;;;8.55;5.22;;;7.30;99.90;;;;;;5009040;28;20499;-79
2022/01/23 14:00:04;;;;;;;9.48;6.13;;;7.40;99.90;;;;;;5008348;28;20091;-79
2022/01/23 14:02:40;;;;;;;8.60;5.53;;;7.40;99.90;;;;;;5007200;28;20065;-78
2022/01/23 14:05:13;;;;;;;;;;;7.30;99.90;;;;;;5008793;28;20514;-81
2022/01/23 14:07:46;;;;;;;8.90;5.88;;;7.30;99.90;;;;;;5007385;28;20124;-80
2022/01/23 14:10:32;;;;;;;9.60;5.82;;;7.30;99.90;;;;;;5008013;28;20022;-81
2022/01/23 14:13:24;;;;;;;7.78;5.28;;;7.40;99.90;;;;;;5006727;28;20113;-80
2022/01/23 14:15:53;;;;;;;11.77;6.00;;;7.30;99.90;;;;;;5007768;28;20088;-81
2022/01/23 14:18:24;;;;;;;9.07;5.53;;;7.40;99.90;;;;;;5007932;28;20022;-80
2022/01/23 14:21:05;;;;;;;8.00;5.78;;;7.40;99.90;;;;;;5008627;28;20069;-81
2022/01/23 14:23:34;;;;;;;16.55;10.52;;;7.40;99.90;;;;;;5004036;28;20113;-78
2022/01/23 14:26:09;;;;;;;10.85;6.88;;;7.60;99.90;;;;;;5005547;28;20087;-78
2022/01/23 14:28:45;;;;;;;6.97;4.93;;;8.50;99.90;;;;;;5005177;28;20033;-87
2022/01/23 14:31:19;;;;;;;8.23;5.70;;;8.50;99.90;;;;;;5008116;28;20026;-86
2022/01/23 14:33:48;;;;;;;7.55;5.80;;;8.30;99.90;;;;;;5006616;28;20044;-87
2022/01/23 14:36:24;;;;;;;5.93;5.07;;;8.00;99.90;;;;;;5005887;28;20105;-86
2022/01/23 14:38:56;;;;;;;8.90;6.50;;;7.90;99.90;;;;;;5006301;28;20099;-87
2022/01/23 14:41:24;;;;;;;8.43;5.97;;;7.80;99.90;;;;;;5007064;28;20315;-87
2022/01/23 14:43:50;;;;;;;8.18;5.85;;;7.60;99.90;;;;;;5006968;28;20030;-87
2022/01/23 14:46:16;;;;;;;;;;;7.50;99.90;;;;;;5007778;28;20037;-87
2022/01/23 14:48:47;;;;;;;9.82;5.32;;;7.40;99.90;;;;;;5003200;28;19913;-87
2022/01/23 14:51:21;;;;;;;7.68;5.82;;;7.40;99.90;;;;;;5008143;28;20025;-87
2022/01/23 14:53:48;;;;;;;6.35;4.45;;;7.40;99.90;;;;;;5006459;28;20038;-86
2022/01/23 14:56:14;;;;;;;8.15;5.03;;;7.40;99.90;;;;;;5007569;28;20025;-87
2022/01/23 14:58:40;;;;;;;;;;;7.40;99.90;;;;;;5009454;28;20045;-87
2022/01/23 15:01:10;;;;;;;8.77;5.65;;;7.30;99.90;;;;;;5011635;28;19910;-88
2022/01/23 15:03:36;;;;;;;7.45;5.63;;;7.30;99.90;;;;;;5009874;28;20030;-87
2022/01/23 15:06:02;;;;;;;10.02;6.05;;;7.30;99.90;;;;;;5011061;28;20029;-87
2022/01/23 15:08:28;;;;;;;;;;;7.30;99.90;;;;;;5008297;28;20510;-87
2022/01/23 15:10:57;;;;;;;7.90;5.03;;;7.20;99.90;;;;;;5010682;28;19918;-86
2022/01/23 15:13:24;;;;;;;7.43;5.68;;;7.20;99.90;;;;;;5009414;28;20394;-87
2022/01/23 15:15:51;;;;;;;7.57;5.70;;;7.20;99.90;;;;;;5011284;28;20022;-86
2022/01/23 15:18:17;;;;;;;9.50;6.63;;;7.20;99.90;;;;;;5009986;28;20539;-87
2022/01/23 15:20:43;;;;;;;;;;;7.20;99.90;;;;;;5010518;28;20044;-87
2022/01/23 15:23:09;;;;;;;9.43;5.88;;;7.20;99.90;;;;;;5009607;28;20246;-88
2022/01/23 15:25:35;;;;;;;8.48;5.28;;;7.20;99.90;;;;;;5010575;28;20429;-87
2022/01/23 15:28:02;;;;;;;;;;;7.20;99.90;;;;;;5010905;28;20022;-86
2022/01/23 15:30:28;;;;;;;11.23;5.80;;;7.20;99.90;;;;;;5010520;28;19921;-87
2022/01/23 15:32:54;;;;;;;11.43;6.55;;;7.20;99.90;;;;;;5008050;28;20014;-87
2022/01/23 15:35:22;;;;;;;10.25;6.35;;;7.20;99.90;;;;;;5012039;28;20165;-87
2022/01/23 15:37:48;;;;;;;9.63;6.72;;;7.20;99.90;;;;;;5009068;28;20030;-86
2022/01/23 15:40:14;;;;;;;;;;;7.20;99.90;;;;;;5011304;28;20382;-87
2022/01/23 15:42:41;;;;;;;10.15;6.72;;;7.20;99.90;;;;;;5010906;28;19927;-87
2022/01/23 15:45:08;;;;;;;12.35;7.18;;;7.20;99.90;;;;;;5010261;28;20572;-87
2022/01/23 15:47:34;;;;;;;10.15;7.50;;;7.20;99.90;;;;;;5010514;28;20081;-87
2022/01/23 15:50:02;;;;;;;;;;;7.20;99.90;;;;;;5007109;28;20537;-88
2022/01/23 15:52:30;;;;;;;11.45;7.90;;;7.20;99.90;;;;;;5003952;28;20453;-87
2022/01/23 15:54:56;;;;;;;10.57;7.45;;;7.20;99.90;;;;;;5012017;28;20427;-87
2022/01/23 15:57:22;;;;;;;14.30;9.48;;;7.10;99.90;;;;;;5007545;28;20026;-87
2022/01/23 15:59:48;;;;;;;;;;;7.10;99.90;;;;;;5009854;28;20056;-87
2022/01/23 16:02:13;;;;;;;12.57;8.02;;;7.10;99.90;;;;;;5007972;28;20305;-88
2022/01/23 16:04:40;;;;;;;15.48;9.35;;;7.10;99.90;;;;;;5011379;28;20033;-87
2022/01/23 16:07:07;;;;;;;10.90;7.68;;;7.10;99.90;;;;;;5008524;28;20038;-86
2022/01/23 16:09:34;;;;;;;13.48;8.63;;;7.10;99.90;;;;;;5006841;28;20089;-86
2022/01/23 16:12:00;;;;;;;9.63;7.88;;;7.10;99.90;;;;;;5009690;28;20029;-86
2022/01/23 16:14:26;;;;;;;;;;;7.10;99.90;;;;;;5010890;28;20022;-86
2022/01/23 16:16:51;;;;;;;10.70;7.97;;;7.20;99.90;;;;;;5008570;28;19909;-86
2022/01/23 16:19:17;;;;;;;;;;;7.10;99.90;;;;;;5011662;28;20481;-86
2022/01/23 16:21:44;;;;;;;11.60;8.30;;;7.10;99.90;;;;;;5009831;28;19955;-87
2022/01/23 16:24:11;;;;;;;11.10;8.02;;;7.10;99.90;;;;;;5012422;28;20056;-87